sensor_id;sensor_type;location;lat;lon;timestamp;P1;durP1;ratioP1;P2;durP2;ratioP2
48524;SDS011;34316;51.514;-0.178;2022-07-29T00:00:53;9.82;;;8.75;;
48524;SDS011;34316;51.514;-0.178;2022-07-29T00:02:55;12.32;;;8.88;;
48524;SDS011;34316;51.514;-0.178;2022-07-29T00:04:57;13.18;;;8.70;;
48524;SDS011;34316;51.514;-0.178;2022-07-29T00:07:00;9.65;;;8.43;;
48524;SDS011;34316;51.514;-0.178;2022-07-29T00:09:02;10.18;;;8.40;;
48524;SDS011;34316;51.514;-0.178;2022-07-29T00:11:03;9.23;;;7.20;;
48524;SDS011;34316;51.514;-0.178;2022-07-29T00:13:06;10.93;;;8.10;;
48524;SDS011;34316;51.514;-0.178;2022-07-29T00:15:09;9.07;;;7.80;;
48524;SDS011;34316;51.514;-0.178;2022-07-29T00:17:11;9.15;;;7.45;;
48524;SDS011;34316;51.514;-0.178;2022-07-29T00:19:19;10.63;;;7.65;;
48524;SDS011;34316;51.514;-0.178;2022-07-29T00:21:23;11.43;;;7.18;;
48524;SDS011;34316;51.514;-0.178;2022-07-29T00:23:25;10.07;;;6.68;;
48524;SDS011;34316;51.514;-0.178;2022-07-29T00:25:27;8.70;;;7.22;;
48524;SDS011;34316;51.514;-0.178;2022-07-29T00:27:28;8.23;;;7.40;;
48524;SDS011;34316;51.514;-0.178;2022-07-29T00:29:30;9.32;;;6.35;;
48524;SDS011;34316;51.514;-0.178;2022-07-29T00:31:34;9.75;;;7.50;;
48524;SDS011;34316;51.514;-0.178;2022-07-29T00:33:36;8.13;;;7.00;;
48524;SDS011;34316;51.514;-0.178;2022-07-29T00:35:38;7.97;;;7.10;;
48524;SDS011;34316;51.514;-0.178;2022-07-29T00:37:46;8.80;;;7.20;;
48524;SDS011;34316;51.514;-0.178;2022-07-29T00:39:47;11.57;;;7.10;;
48524;SDS011;34316;51.514;-0.178;2022-07-29T00:41:49;9.32;;;7.60;;
48524;SDS011;34316;51.514;-0.178;2022-07-29T00:43:51;12.93;;;7.28;;
48524;SDS011;34316;51.514;-0.178;2022-07-29T00:45:53;7.72;;;6.93;;
48524;SDS011;34316;51.514;-0.178;2022-07-29T00:47:55;8.95;;;8.05;;
48524;SDS011;34316;51.514;-0.178;2022-07-29T00:49:57;9.25;;;7.43;;
48524;SDS011;34316;51.514;-0.178;2022-07-29T00:52:00;10.07;;;8.57;;
48524;SDS011;34316;51.514;-0.178;2022-07-29T00:54:03;11.55;;;9.90;;
48524;SDS011;34316;51.514;-0.178;2022-07-29T00:56:06;12.30;;;9.57;;
48524;SDS011;34316;51.514;-0.178;2022-07-29T00:58:07;12.45;;;10.73;;
48524;SDS011;34316;51.514;-0.178;2022-07-29T01:00:11;14.82;;;10.27;;
48524;SDS011;34316;51.514;-0.178;2022-07-29T01:02:15;12.07;;;10.85;;
48524;SDS011;34316;51.514;-0.178;2022-07-29T01:04:16;12.40;;;10.82;;
48524;SDS011;34316;51.514;-0.178;2022-07-29T01:06:19;13.02;;;11.25;;
48524;SDS011;34316;51.514;-0.178;2022-07-29T01:08:21;12.98;;;11.50;;
48524;SDS011;34316;51.514;-0.178;2022-07-29T01:10:24;14.23;;;11.50;;
48524;SDS011;34316;51.514;-0.178;2022-07-29T01:12:26;14.13;;;11.57;;
48524;SDS011;34316;51.514;-0.178;2022-07-29T01:14:28;12.93;;;11.65;;
48524;SDS011;34316;51.514;-0.178;2022-07-29T01:16:31;14.77;;;11.50;;
48524;SDS011;34316;51.514;-0.178;2022-07-29T01:18:34;12.65;;;11.35;;
48524;SDS011;34316;51.514;-0.178;2022-07-29T01:25:54;13.07;;;10.80;;
48524;SDS011;34316;51.514;-0.178;2022-07-29T01:30:05;11.30;;;10.05;;
48524;SDS011;34316;51.514;-0.178;2022-07-29T01:34:41;13.23;;;11.15;;
48524;SDS011;34316;51.514;-0.178;2022-07-29T01:36:50;13.25;;;10.65;;
48524;SDS011;34316;51.514;-0.178;2022-07-29T01:38:59;12.82;;;10.25;;
48524;SDS011;34316;51.514;-0.178;2022-07-29T01:41:06;14.02;;;11.00;;
48524;SDS011;34316;51.514;-0.178;2022-07-29T01:43:11;12.43;;;10.52;;
48524;SDS011;34316;51.514;-0.178;2022-07-29T01:45:16;13.13;;;10.25;;
48524;SDS011;34316;51.514;-0.178;2022-07-29T01:47:22;13.43;;;10.70;;
48524;SDS011;34316;51.514;-0.178;2022-07-29T01:49:28;12.30;;;10.60;;
48524;SDS011;34316;51.514;-0.178;2022-07-29T01:51:33;12.20;;;10.95;;
48524;SDS011;34316;51.514;-0.178;2022-07-29T01:53:43;14.82;;;11.40;;
48524;SDS011;34316;51.514;-0.178;2022-07-29T01:56:05;12.05;;;10.80;;
48524;SDS011;34316;51.514;-0.178;2022-07-29T01:58:08;14.50;;;11.73;;
48524;SDS011;34316;51.514;-0.178;2022-07-29T02:00:10;15.45;;;11.05;;
48524;SDS011;34316;51.514;-0.178;2022-07-29T02:02:13;13.75;;;11.18;;
48524;SDS011;34316;51.514;-0.178;2022-07-29T02:04:16;11.23;;;9.90;;
48524;SDS011;34316;51.514;-0.178;2022-07-29T02:06:30;13.98;;;10.98;;
48524;SDS011;34316;51.514;-0.178;2022-07-29T02:08:33;13.10;;;11.30;;
48524;SDS011;34316;51.514;-0.178;2022-07-29T02:10:35;10.98;;;9.88;;
48524;SDS011;34316;51.514;-0.178;2022-07-29T02:12:37;12.70;;;10.02;;
48524;SDS011;34316;51.514;-0.178;2022-07-29T02:14:42;11.80;;;10.60;;
48524;SDS011;34316;51.514;-0.178;2022-07-29T02:16:47;11.65;;;10.23;;
48524;SDS011;34316;51.514;-0.178;2022-07-29T02:18:52;13.07;;;10.18;;
48524;SDS011;34316;51.514;-0.178;2022-07-29T02:22:56;12.60;;;9.82;;
48524;SDS011;34316;51.514;-0.178;2022-07-29T02:25:01;11.77;;;9.98;;
48524;SDS011;34316;51.514;-0.178;2022-07-29T02:27:04;11.98;;;8.82;;
48524;SDS011;34316;51.514;-0.178;2022-07-29T02:29:05;10.10;;;9.02;;
48524;SDS011;34316;51.514;-0.178;2022-07-29T02:31:08;12.82;;;9.27;;
48524;SDS011;34316;51.514;-0.178;2022-07-29T02:33:12;14.37;;;9.00;;
48524;SDS011;34316;51.514;-0.178;2022-07-29T02:35:15;13.45;;;9.20;;
48524;SDS011;34316;51.514;-0.178;2022-07-29T02:37:17;10.32;;;9.25;;
48524;SDS011;34316;51.514;-0.178;2022-07-29T02:39:19;13.77;;;9.90;;
48524;SDS011;34316;51.514;-0.178;2022-07-29T02:41:29;11.38;;;9.38;;
48524;SDS011;34316;51.514;-0.178;2022-07-29T02:43:33;13.27;;;10.77;;
48524;SDS011;34316;51.514;-0.178;2022-07-29T02:45:35;12.20;;;10.90;;
48524;SDS011;34316;51.514;-0.178;2022-07-29T02:47:41;12.05;;;10.38;;
48524;SDS011;34316;51.514;-0.178;2022-07-29T02:49:58;13.55;;;10.32;;
48524;SDS011;34316;51.514;-0.178;2022-07-29T02:52:06;16.20;;;11.18;;
48524;SDS011;34316;51.514;-0.178;2022-07-29T02:54:33;14.57;;;11.95;;
48524;SDS011;34316;51.514;-0.178;2022-07-29T02:56:40;13.63;;;11.88;;
48524;SDS011;34316;51.514;-0.178;2022-07-29T02:58:47;13.63;;;11.48;;
48524;SDS011;34316;51.514;-0.178;2022-07-29T03:00:51;13.68;;;12.20;;
48524;SDS011;34316;51.514;-0.178;2022-07-29T03:02:54;14.60;;;11.93;;
48524;SDS011;34316;51.514;-0.178;2022-07-29T03:04:58;14.15;;;12.15;;
48524;SDS011;34316;51.514;-0.178;2022-07-29T03:07:01;13.82;;;12.43;;
48524;SDS011;34316;51.514;-0.178;2022-07-29T03:09:03;16.30;;;13.55;;
48524;SDS011;34316;51.514;-0.178;2022-07-29T03:11:13;14.52;;;11.77;;
48524;SDS011;34316;51.514;-0.178;2022-07-29T03:13:15;13.77;;;11.45;;
48524;SDS011;34316;51.514;-0.178;2022-07-29T03:15:17;13.60;;;11.80;;
48524;SDS011;34316;51.514;-0.178;2022-07-29T03:17:19;13.32;;;11.90;;
48524;SDS011;34316;51.514;-0.178;2022-07-29T03:19:22;16.63;;;12.55;;
48524;SDS011;34316;51.514;-0.178;2022-07-29T03:21:24;12.45;;;11.15;;
48524;SDS011;34316;51.514;-0.178;2022-07-29T03:23:26;15.07;;;11.30;;
48524;SDS011;34316;51.514;-0.178;2022-07-29T03:25:35;17.45;;;12.52;;
48524;SDS011;34316;51.514;-0.178;2022-07-29T03:27:37;16.85;;;11.25;;
48524;SDS011;34316;51.514;-0.178;2022-07-29T03:29:38;14.07;;;10.75;;
48524;SDS011;34316;51.514;-0.178;2022-07-29T03:31:43;15.73;;;10.63;;
48524;SDS011;34316;51.514;-0.178;2022-07-29T03:33:46;13.68;;;10.35;;
48524;SDS011;34316;51.514;-0.178;2022-07-29T03:35:48;14.60;;;9.82;;
48524;SDS011;34316;51.514;-0.178;2022-07-29T03:37:49;13.38;;;10.10;;
48524;SDS011;34316;51.514;-0.178;2022-07-29T03:39:52;13.27;;;10.00;;
48524;SDS011;34316;51.514;-0.178;2022-07-29T03:41:56;12.90;;;10.30;;
48524;SDS011;34316;51.514;-0.178;2022-07-29T03:43:59;13.15;;;9.35;;
48524;SDS011;34316;51.514;-0.178;2022-07-29T03:46:02;12.98;;;9.77;;
48524;SDS011;34316;51.514;-0.178;2022-07-29T03:48:10;13.68;;;10.40;;
48524;SDS011;34316;51.514;-0.178;2022-07-29T03:50:14;16.50;;;10.27;;
48524;SDS011;34316;51.514;-0.178;2022-07-29T03:52:16;11.88;;;10.68;;
48524;SDS011;34316;51.514;-0.178;2022-07-29T03:54:18;14.45;;;11.40;;
48524;SDS011;34316;51.514;-0.178;2022-07-29T03:56:21;13.60;;;12.27;;
48524;SDS011;34316;51.514;-0.178;2022-07-29T03:58:24;12.82;;;10.95;;
48524;SDS011;34316;51.514;-0.178;2022-07-29T04:00:27;14.82;;;11.77;;
48524;SDS011;34316;51.514;-0.178;2022-07-29T04:02:30;15.50;;;11.52;;
48524;SDS011;34316;51.514;-0.178;2022-07-29T04:04:36;13.00;;;11.35;;
48524;SDS011;34316;51.514;-0.178;2022-07-29T04:06:38;17.33;;;12.57;;
48524;SDS011;34316;51.514;-0.178;2022-07-29T04:08:43;17.05;;;13.55;;
48524;SDS011;34316;51.514;-0.178;2022-07-29T04:10:45;14.02;;;11.82;;
48524;SDS011;34316;51.514;-0.178;2022-07-29T04:12:49;17.48;;;12.90;;
48524;SDS011;34316;51.514;-0.178;2022-07-29T04:14:51;17.17;;;12.82;;
48524;SDS011;34316;51.514;-0.178;2022-07-29T04:16:52;18.85;;;13.80;;
48524;SDS011;34316;51.514;-0.178;2022-07-29T04:18:54;14.68;;;12.52;;
48524;SDS011;34316;51.514;-0.178;2022-07-29T04:20:55;14.88;;;12.95;;
48524;SDS011;34316;51.514;-0.178;2022-07-29T04:23:00;15.07;;;12.95;;
48524;SDS011;34316;51.514;-0.178;2022-07-29T04:25:01;16.23;;;12.18;;
48524;SDS011;34316;51.514;-0.178;2022-07-29T04:27:04;18.27;;;13.48;;
48524;SDS011;34316;51.514;-0.178;2022-07-29T04:29:06;15.77;;;12.95;;
48524;SDS011;34316;51.514;-0.178;2022-07-29T04:31:08;18.00;;;12.57;;
48524;SDS011;34316;51.514;-0.178;2022-07-29T04:33:10;15.77;;;12.55;;
48524;SDS011;34316;51.514;-0.178;2022-07-29T04:35:13;16.55;;;12.90;;
48524;SDS011;34316;51.514;-0.178;2022-07-29T04:37:14;16.70;;;11.95;;
48524;SDS011;34316;51.514;-0.178;2022-07-29T04:39:16;15.70;;;12.25;;
48524;SDS011;34316;51.514;-0.178;2022-07-29T04:41:23;14.65;;;12.93;;
48524;SDS011;34316;51.514;-0.178;2022-07-29T04:43:34;13.40;;;11.98;;
48524;SDS011;34316;51.514;-0.178;2022-07-29T04:45:37;15.13;;;13.00;;
48524;SDS011;34316;51.514;-0.178;2022-07-29T04:47:39;15.20;;;12.60;;
48524;SDS011;34316;51.514;-0.178;2022-07-29T04:49:42;13.50;;;11.88;;
48524;SDS011;34316;51.514;-0.178;2022-07-29T04:51:43;17.25;;;12.55;;
48524;SDS011;34316;51.514;-0.178;2022-07-29T04:53:45;19.20;;;12.10;;
48524;SDS011;34316;51.514;-0.178;2022-07-29T04:55:46;18.05;;;13.82;;
48524;SDS011;34316;51.514;-0.178;2022-07-29T04:57:48;17.77;;;13.23;;
48524;SDS011;34316;51.514;-0.178;2022-07-29T04:59:50;15.85;;;13.18;;
48524;SDS011;34316;51.514;-0.178;2022-07-29T05:01:51;18.95;;;13.25;;
48524;SDS011;34316;51.514;-0.178;2022-07-29T05:03:53;17.67;;;12.65;;
48524;SDS011;34316;51.514;-0.178;2022-07-29T05:06:00;13.98;;;12.02;;
48524;SDS011;34316;51.514;-0.178;2022-07-29T05:08:02;16.20;;;12.45;;
48524;SDS011;34316;51.514;-0.178;2022-07-29T05:10:04;16.98;;;13.10;;
48524;SDS011;34316;51.514;-0.178;2022-07-29T05:12:06;29.98;;;13.27;;
48524;SDS011;34316;51.514;-0.178;2022-07-29T05:14:08;17.48;;;12.75;;
48524;SDS011;34316;51.514;-0.178;2022-07-29T05:16:10;19.02;;;11.85;;
48524;SDS011;34316;51.514;-0.178;2022-07-29T05:18:12;13.60;;;11.00;;
48524;SDS011;34316;51.514;-0.178;2022-07-29T05:20:14;14.25;;;9.88;;
48524;SDS011;34316;51.514;-0.178;2022-07-29T05:22:15;11.38;;;8.02;;
48524;SDS011;34316;51.514;-0.178;2022-07-29T05:24:17;9.73;;;7.07;;
48524;SDS011;34316;51.514;-0.178;2022-07-29T05:26:19;9.05;;;6.70;;
48524;SDS011;34316;51.514;-0.178;2022-07-29T05:28:21;10.80;;;7.45;;
48524;SDS011;34316;51.514;-0.178;2022-07-29T05:30:23;9.40;;;7.55;;
48524;SDS011;34316;51.514;-0.178;2022-07-29T05:32:25;10.55;;;7.53;;
48524;SDS011;34316;51.514;-0.178;2022-07-29T05:34:26;11.15;;;7.70;;
48524;SDS011;34316;51.514;-0.178;2022-07-29T05:36:28;11.45;;;7.55;;
48524;SDS011;34316;51.514;-0.178;2022-07-29T05:38:30;12.93;;;8.40;;
48524;SDS011;34316;51.514;-0.178;2022-07-29T05:40:32;13.13;;;8.10;;
48524;SDS011;34316;51.514;-0.178;2022-07-29T05:42:33;11.82;;;8.02;;
48524;SDS011;34316;51.514;-0.178;2022-07-29T05:44:36;10.30;;;8.75;;
48524;SDS011;34316;51.514;-0.178;2022-07-29T05:46:39;9.25;;;8.23;;
48524;SDS011;34316;51.514;-0.178;2022-07-29T05:48:41;11.43;;;8.52;;
48524;SDS011;34316;51.514;-0.178;2022-07-29T05:50:42;10.68;;;7.78;;
48524;SDS011;34316;51.514;-0.178;2022-07-29T05:52:44;11.43;;;8.45;;
48524;SDS011;34316;51.514;-0.178;2022-07-29T05:54:46;14.10;;;9.00;;
48524;SDS011;34316;51.514;-0.178;2022-07-29T05:56:48;11.68;;;9.05;;
48524;SDS011;34316;51.514;-0.178;2022-07-29T05:58:50;11.93;;;9.70;;
48524;SDS011;34316;51.514;-0.178;2022-07-29T06:00:52;10.03;;;8.03;;
48524;SDS011;34316;51.514;-0.178;2022-07-29T06:02:54;10.85;;;8.32;;
48524;SDS011;34316;51.514;-0.178;2022-07-29T06:04:56;10.75;;;7.97;;
48524;SDS011;34316;51.514;-0.178;2022-07-29T06:06:57;15.43;;;9.95;;
48524;SDS011;34316;51.514;-0.178;2022-07-29T06:08:59;8.45;;;7.55;;
48524;SDS011;34316;51.514;-0.178;2022-07-29T06:11:13;10.15;;;7.60;;
48524;SDS011;34316;51.514;-0.178;2022-07-29T06:13:14;9.40;;;6.72;;
48524;SDS011;34316;51.514;-0.178;2022-07-29T06:15:17;9.30;;;6.70;;
48524;SDS011;34316;51.514;-0.178;2022-07-29T06:17:19;8.18;;;6.28;;
48524;SDS011;34316;51.514;-0.178;2022-07-29T06:19:20;8.95;;;6.15;;
48524;SDS011;34316;51.514;-0.178;2022-07-29T06:21:22;12.43;;;6.43;;
48524;SDS011;34316;51.514;-0.178;2022-07-29T06:23:24;10.73;;;6.85;;
48524;SDS011;34316;51.514;-0.178;2022-07-29T06:25:26;12.50;;;6.60;;
48524;SDS011;34316;51.514;-0.178;2022-07-29T06:27:30;8.50;;;5.60;;
48524;SDS011;34316;51.514;-0.178;2022-07-29T06:29:32;7.50;;;5.90;;
48524;SDS011;34316;51.514;-0.178;2022-07-29T06:31:33;6.88;;;6.05;;
48524;SDS011;34316;51.514;-0.178;2022-07-29T06:33:35;6.82;;;5.63;;
48524;SDS011;34316;51.514;-0.178;2022-07-29T06:35:37;10.25;;;5.63;;
48524;SDS011;34316;51.514;-0.178;2022-07-29T06:37:42;8.25;;;6.47;;
48524;SDS011;34316;51.514;-0.178;2022-07-29T06:39:46;7.55;;;5.45;;
48524;SDS011;34316;51.514;-0.178;2022-07-29T06:41:49;13.27;;;11.98;;
48524;SDS011;34316;51.514;-0.178;2022-07-29T06:43:51;11.02;;;6.65;;
48524;SDS011;34316;51.514;-0.178;2022-07-29T06:45:58;6.47;;;5.32;;
48524;SDS011;34316;51.514;-0.178;2022-07-29T06:48:00;5.63;;;5.13;;
48524;SDS011;34316;51.514;-0.178;2022-07-29T06:50:02;6.68;;;5.60;;
48524;SDS011;34316;51.514;-0.178;2022-07-29T06:52:08;8.25;;;5.38;;
48524;SDS011;34316;51.514;-0.178;2022-07-29T06:54:09;14.00;;;6.25;;
48524;SDS011;34316;51.514;-0.178;2022-07-29T06:56:11;9.73;;;5.55;;
48524;SDS011;34316;51.514;-0.178;2022-07-29T06:58:15;7.80;;;5.25;;
48524;SDS011;34316;51.514;-0.178;2022-07-29T07:00:19;7.18;;;5.55;;
48524;SDS011;34316;51.514;-0.178;2022-07-29T07:02:20;6.97;;;5.45;;
48524;SDS011;34316;51.514;-0.178;2022-07-29T07:04:22;8.98;;;5.47;;
48524;SDS011;34316;51.514;-0.178;2022-07-29T07:06:24;14.82;;;6.22;;
48524;SDS011;34316;51.514;-0.178;2022-07-29T07:08:26;7.40;;;5.63;;
48524;SDS011;34316;51.514;-0.178;2022-07-29T07:10:27;11.02;;;4.78;;
48524;SDS011;34316;51.514;-0.178;2022-07-29T07:12:29;7.68;;;5.15;;
48524;SDS011;34316;51.514;-0.178;2022-07-29T07:14:31;7.70;;;5.10;;
48524;SDS011;34316;51.514;-0.178;2022-07-29T07:16:33;5.95;;;5.13;;
48524;SDS011;34316;51.514;-0.178;2022-07-29T07:18:34;8.07;;;5.93;;
48524;SDS011;34316;51.514;-0.178;2022-07-29T07:20:36;14.38;;;5.82;;
48524;SDS011;34316;51.514;-0.178;2022-07-29T07:22:38;6.63;;;5.53;;
48524;SDS011;34316;51.514;-0.178;2022-07-29T07:24:39;7.80;;;4.85;;
48524;SDS011;34316;51.514;-0.178;2022-07-29T07:26:41;7.60;;;5.10;;
48524;SDS011;34316;51.514;-0.178;2022-07-29T07:28:43;6.65;;;4.93;;
48524;SDS011;34316;51.514;-0.178;2022-07-29T07:30:45;12.75;;;9.45;;
48524;SDS011;34316;51.514;-0.178;2022-07-29T07:32:46;6.95;;;5.07;;
48524;SDS011;34316;51.514;-0.178;2022-07-29T07:34:48;9.48;;;5.18;;
48524;SDS011;34316;51.514;-0.178;2022-07-29T07:36:50;10.63;;;5.95;;
48524;SDS011;34316;51.514;-0.178;2022-07-29T07:38:52;7.68;;;5.32;;
48524;SDS011;34316;51.514;-0.178;2022-07-29T07:40:53;7.68;;;5.05;;
48524;SDS011;34316;51.514;-0.178;2022-07-29T07:42:55;6.80;;;5.28;;
48524;SDS011;34316;51.514;-0.178;2022-07-29T07:44:57;7.90;;;7.10;;
48524;SDS011;34316;51.514;-0.178;2022-07-29T07:47:17;6.38;;;4.57;;
48524;SDS011;34316;51.514;-0.178;2022-07-29T07:49:22;8.38;;;4.28;;
48524;SDS011;34316;51.514;-0.178;2022-07-29T07:51:24;6.80;;;4.68;;
48524;SDS011;34316;51.514;-0.178;2022-07-29T07:53:26;6.32;;;4.50;;
48524;SDS011;34316;51.514;-0.178;2022-07-29T07:55:27;5.95;;;4.47;;
48524;SDS011;34316;51.514;-0.178;2022-07-29T07:57:49;6.95;;;4.35;;
48524;SDS011;34316;51.514;-0.178;2022-07-29T07:59:51;8.55;;;4.18;;
48524;SDS011;34316;51.514;-0.178;2022-07-29T08:01:53;6.75;;;4.20;;
48524;SDS011;34316;51.514;-0.178;2022-07-29T08:05:58;9.35;;;4.28;;
48524;SDS011;34316;51.514;-0.178;2022-07-29T08:07:59;8.77;;;4.05;;
48524;SDS011;34316;51.514;-0.178;2022-07-29T08:10:01;6.05;;;4.03;;
48524;SDS011;34316;51.514;-0.178;2022-07-29T08:12:03;4.50;;;4.10;;
48524;SDS011;34316;51.514;-0.178;2022-07-29T08:14:06;5.38;;;3.88;;
48524;SDS011;34316;51.514;-0.178;2022-07-29T08:16:08;5.63;;;4.40;;
48524;SDS011;34316;51.514;-0.178;2022-07-29T08:18:13;8.15;;;4.40;;
48524;SDS011;34316;51.514;-0.178;2022-07-29T08:20:15;6.85;;;3.90;;
48524;SDS011;34316;51.514;-0.178;2022-07-29T08:22:18;6.47;;;3.75;;
48524;SDS011;34316;51.514;-0.178;2022-07-29T08:26:41;6.03;;;4.45;;
48524;SDS011;34316;51.514;-0.178;2022-07-29T08:28:44;7.55;;;3.97;;
48524;SDS011;34316;51.514;-0.178;2022-07-29T08:30:47;4.05;;;3.65;;
48524;SDS011;34316;51.514;-0.178;2022-07-29T08:32:49;7.00;;;4.05;;
48524;SDS011;34316;51.514;-0.178;2022-07-29T08:34:55;5.78;;;4.18;;
48524;SDS011;34316;51.514;-0.178;2022-07-29T08:36:57;5.15;;;3.97;;
48524;SDS011;34316;51.514;-0.178;2022-07-29T08:39:00;5.88;;;3.72;;
48524;SDS011;34316;51.514;-0.178;2022-07-29T08:41:02;5.72;;;3.85;;
48524;SDS011;34316;51.514;-0.178;2022-07-29T08:43:05;5.45;;;3.65;;
48524;SDS011;34316;51.514;-0.178;2022-07-29T08:45:10;4.40;;;3.58;;
48524;SDS011;34316;51.514;-0.178;2022-07-29T08:47:13;5.28;;;3.58;;
48524;SDS011;34316;51.514;-0.178;2022-07-29T08:51:18;6.15;;;3.25;;
48524;SDS011;34316;51.514;-0.178;2022-07-29T08:53:20;4.47;;;3.53;;
48524;SDS011;34316;51.514;-0.178;2022-07-29T08:55:23;7.38;;;3.85;;
48524;SDS011;34316;51.514;-0.178;2022-07-29T08:57:24;6.88;;;4.30;;
48524;SDS011;34316;51.514;-0.178;2022-07-29T08:59:27;5.82;;;3.60;;
48524;SDS011;34316;51.514;-0.178;2022-07-29T09:01:32;5.00;;;3.78;;
48524;SDS011;34316;51.514;-0.178;2022-07-29T09:03:37;5.40;;;3.80;;
48524;SDS011;34316;51.514;-0.178;2022-07-29T09:07:48;4.38;;;3.13;;
48524;SDS011;34316;51.514;-0.178;2022-07-29T09:09:51;5.25;;;3.42;;
48524;SDS011;34316;51.514;-0.178;2022-07-29T09:11:56;4.60;;;3.38;;
48524;SDS011;34316;51.514;-0.178;2022-07-29T09:13:58;7.37;;;4.23;;
48524;SDS011;34316;51.514;-0.178;2022-07-29T09:16:00;4.40;;;3.28;;
48524;SDS011;34316;51.514;-0.178;2022-07-29T09:18:09;6.95;;;3.70;;
48524;SDS011;34316;51.514;-0.178;2022-07-29T09:20:31;5.97;;;3.90;;
48524;SDS011;34316;51.514;-0.178;2022-07-29T09:22:51;5.47;;;3.30;;
48524;SDS011;34316;51.514;-0.178;2022-07-29T09:24:54;6.43;;;4.00;;
48524;SDS011;34316;51.514;-0.178;2022-07-29T09:26:56;4.53;;;3.13;;
48524;SDS011;34316;51.514;-0.178;2022-07-29T09:28:58;4.05;;;3.38;;
48524;SDS011;34316;51.514;-0.178;2022-07-29T09:31:00;4.57;;;3.08;;
48524;SDS011;34316;51.514;-0.178;2022-07-29T09:33:03;6.97;;;3.78;;
48524;SDS011;34316;51.514;-0.178;2022-07-29T09:37:36;6.88;;;3.70;;
48524;SDS011;34316;51.514;-0.178;2022-07-29T09:39:38;5.03;;;4.13;;
48524;SDS011;34316;51.514;-0.178;2022-07-29T09:41:48;5.28;;;3.75;;
48524;SDS011;34316;51.514;-0.178;2022-07-29T09:43:55;5.35;;;3.20;;
48524;SDS011;34316;51.514;-0.178;2022-07-29T09:48:16;4.97;;;3.40;;
48524;SDS011;34316;51.514;-0.178;2022-07-29T09:50:20;7.78;;;3.60;;
48524;SDS011;34316;51.514;-0.178;2022-07-29T09:52:25;8.23;;;4.07;;
48524;SDS011;34316;51.514;-0.178;2022-07-29T09:54:28;5.05;;;3.67;;
48524;SDS011;34316;51.514;-0.178;2022-07-29T09:56:39;6.45;;;3.72;;
48524;SDS011;34316;51.514;-0.178;2022-07-29T09:58:41;4.25;;;3.40;;
48524;SDS011;34316;51.514;-0.178;2022-07-29T10:00:43;7.78;;;4.20;;
48524;SDS011;34316;51.514;-0.178;2022-07-29T10:02:47;6.63;;;3.88;;
48524;SDS011;34316;51.514;-0.178;2022-07-29T10:04:50;5.93;;;3.95;;
48524;SDS011;34316;51.514;-0.178;2022-07-29T10:06:59;4.05;;;3.40;;
48524;SDS011;34316;51.514;-0.178;2022-07-29T10:09:09;10.57;;;4.20;;
48524;SDS011;34316;51.514;-0.178;2022-07-29T10:11:18;8.00;;;4.38;;
48524;SDS011;34316;51.514;-0.178;2022-07-29T10:13:20;5.22;;;4.07;;
48524;SDS011;34316;51.514;-0.178;2022-07-29T10:15:23;5.72;;;4.45;;
48524;SDS011;34316;51.514;-0.178;2022-07-29T10:17:27;7.32;;;4.22;;
48524;SDS011;34316;51.514;-0.178;2022-07-29T10:19:29;5.40;;;4.20;;
48524;SDS011;34316;51.514;-0.178;2022-07-29T10:21:32;5.97;;;3.65;;
48524;SDS011;34316;51.514;-0.178;2022-07-29T10:23:36;5.35;;;4.07;;
48524;SDS011;34316;51.514;-0.178;2022-07-29T10:25:47;4.95;;;4.18;;
48524;SDS011;34316;51.514;-0.178;2022-07-29T10:27:49;7.25;;;4.40;;
48524;SDS011;34316;51.514;-0.178;2022-07-29T10:29:54;4.63;;;3.80;;
48524;SDS011;34316;51.514;-0.178;2022-07-29T10:34:25;5.22;;;3.65;;
48524;SDS011;34316;51.514;-0.178;2022-07-29T10:42:32;7.85;;;4.05;;
48524;SDS011;34316;51.514;-0.178;2022-07-29T10:44:41;4.18;;;3.78;;
48524;SDS011;34316;51.514;-0.178;2022-07-29T10:46:44;8.93;;;3.63;;
48524;SDS011;34316;51.514;-0.178;2022-07-29T10:51:15;5.63;;;4.03;;
48524;SDS011;34316;51.514;-0.178;2022-07-29T10:53:18;5.57;;;3.72;;
48524;SDS011;34316;51.514;-0.178;2022-07-29T10:55:33;5.15;;;4.50;;
48524;SDS011;34316;51.514;-0.178;2022-07-29T10:57:43;5.65;;;4.15;;
48524;SDS011;34316;51.514;-0.178;2022-07-29T11:00:27;8.35;;;4.55;;
48524;SDS011;34316;51.514;-0.178;2022-07-29T11:07:19;7.45;;;4.80;;
48524;SDS011;34316;51.514;-0.178;2022-07-29T11:09:16;4.35;;;3.92;;
48524;SDS011;34316;51.514;-0.178;2022-07-29T11:11:39;4.50;;;4.07;;
48524;SDS011;34316;51.514;-0.178;2022-07-29T11:13:52;5.88;;;4.07;;
48524;SDS011;34316;51.514;-0.178;2022-07-29T11:15:57;4.80;;;4.15;;
48524;SDS011;34316;51.514;-0.178;2022-07-29T11:22:44;5.60;;;4.60;;
48524;SDS011;34316;51.514;-0.178;2022-07-29T11:24:47;6.53;;;4.43;;
48524;SDS011;34316;51.514;-0.178;2022-07-29T11:27:19;6.00;;;4.20;;
48524;SDS011;34316;51.514;-0.178;2022-07-29T11:29:22;5.65;;;4.50;;
48524;SDS011;34316;51.514;-0.178;2022-07-29T11:33:44;5.22;;;4.25;;
48524;SDS011;34316;51.514;-0.178;2022-07-29T11:36:09;5.20;;;4.68;;
48524;SDS011;34316;51.514;-0.178;2022-07-29T11:38:26;5.38;;;4.88;;
48524;SDS011;34316;51.514;-0.178;2022-07-29T11:45:51;5.70;;;4.35;;
48524;SDS011;34316;51.514;-0.178;2022-07-29T11:47:53;5.45;;;4.60;;
48524;SDS011;34316;51.514;-0.178;2022-07-29T11:50:29;5.07;;;4.57;;
48524;SDS011;34316;51.514;-0.178;2022-07-29T11:52:37;5.97;;;4.70;;
48524;SDS011;34316;51.514;-0.178;2022-07-29T11:54:50;5.47;;;4.53;;
48524;SDS011;34316;51.514;-0.178;2022-07-29T11:57:01;7.07;;;4.32;;
48524;SDS011;34316;51.514;-0.178;2022-07-29T11:59:05;5.85;;;4.07;;
48524;SDS011;34316;51.514;-0.178;2022-07-29T12:01:12;5.35;;;4.60;;
48524;SDS011;34316;51.514;-0.178;2022-07-29T12:03:24;4.85;;;4.35;;
48524;SDS011;34316;51.514;-0.178;2022-07-29T12:05:40;6.00;;;4.85;;
48524;SDS011;34316;51.514;-0.178;2022-07-29T12:07:52;6.07;;;4.45;;
48524;SDS011;34316;51.514;-0.178;2022-07-29T12:09:54;6.53;;;4.00;;
48524;SDS011;34316;51.514;-0.178;2022-07-29T12:11:57;4.65;;;4.03;;
48524;SDS011;34316;51.514;-0.178;2022-07-29T12:14:05;5.18;;;4.45;;
48524;SDS011;34316;51.514;-0.178;2022-07-29T12:16:07;5.05;;;4.30;;
48524;SDS011;34316;51.514;-0.178;2022-07-29T12:18:16;5.40;;;4.43;;
48524;SDS011;34316;51.514;-0.178;2022-07-29T12:20:25;4.93;;;4.43;;
48524;SDS011;34316;51.514;-0.178;2022-07-29T12:22:33;5.22;;;4.47;;
48524;SDS011;34316;51.514;-0.178;2022-07-29T12:24:44;6.30;;;4.25;;
48524;SDS011;34316;51.514;-0.178;2022-07-29T12:26:50;5.07;;;4.32;;
48524;SDS011;34316;51.514;-0.178;2022-07-29T12:28:56;4.80;;;4.30;;
48524;SDS011;34316;51.514;-0.178;2022-07-29T12:31:02;6.63;;;4.30;;
48524;SDS011;34316;51.514;-0.178;2022-07-29T12:35:21;6.40;;;4.43;;
48524;SDS011;34316;51.514;-0.178;2022-07-29T12:37:23;7.43;;;4.38;;
48524;SDS011;34316;51.514;-0.178;2022-07-29T12:39:42;7.82;;;4.60;;
48524;SDS011;34316;51.514;-0.178;2022-07-29T12:41:44;5.00;;;4.50;;
48524;SDS011;34316;51.514;-0.178;2022-07-29T12:43:53;4.50;;;4.10;;
48524;SDS011;34316;51.514;-0.178;2022-07-29T12:45:56;6.22;;;4.40;;
48524;SDS011;34316;51.514;-0.178;2022-07-29T12:47:58;5.15;;;4.35;;
48524;SDS011;34316;51.514;-0.178;2022-07-29T12:50:10;4.85;;;4.35;;
48524;SDS011;34316;51.514;-0.178;2022-07-29T12:52:25;4.97;;;4.43;;
48524;SDS011;34316;51.514;-0.178;2022-07-29T12:54:30;6.90;;;4.50;;
48524;SDS011;34316;51.514;-0.178;2022-07-29T12:56:32;5.93;;;4.40;;
48524;SDS011;34316;51.514;-0.178;2022-07-29T12:58:44;4.80;;;4.32;;
48524;SDS011;34316;51.514;-0.178;2022-07-29T13:00:58;5.22;;;4.70;;
48524;SDS011;34316;51.514;-0.178;2022-07-29T13:03:01;5.15;;;4.40;;
48524;SDS011;34316;51.514;-0.178;2022-07-29T13:05:07;5.53;;;4.75;;